sensor_id;sensor_type;location;lat;lon;timestamp;P1;durP1;ratioP1;P2;durP2;ratioP2
66175;SDS011;52977;44.816;20.538;2022-07-01T00:01:27;6.95;;;4.32;;
66175;SDS011;52977;44.816;20.538;2022-07-01T00:03:53;10.48;;;4.25;;
66175;SDS011;52977;44.816;20.538;2022-07-01T00:06:19;9.23;;;4.63;;
66175;SDS011;52977;44.816;20.538;2022-07-01T00:08:45;10.15;;;5.05;;
66175;SDS011;52977;44.816;20.538;2022-07-01T00:11:11;8.07;;;4.57;;
66175;SDS011;52977;44.816;20.538;2022-07-01T00:13:37;7.38;;;4.53;;
66175;SDS011;52977;44.816;20.538;2022-07-01T00:16:02;7.53;;;4.72;;
66175;SDS011;52977;44.816;20.538;2022-07-01T00:18:29;8.57;;;4.35;;
66175;SDS011;52977;44.816;20.538;2022-07-01T00:20:55;7.35;;;4.80;;
66175;SDS011;52977;44.816;20.538;2022-07-01T00:23:20;7.63;;;4.82;;
66175;SDS011;52977;44.816;20.538;2022-07-01T00:25:46;6.28;;;4.70;;
66175;SDS011;52977;44.816;20.538;2022-07-01T00:28:11;7.93;;;4.32;;
66175;SDS011;52977;44.816;20.538;2022-07-01T00:30:37;7.82;;;4.40;;
66175;SDS011;52977;44.816;20.538;2022-07-01T00:33:03;7.25;;;4.30;;
66175;SDS011;52977;44.816;20.538;2022-07-01T00:35:29;9.52;;;4.78;;
66175;SDS011;52977;44.816;20.538;2022-07-01T00:37:54;6.95;;;4.55;;
66175;SDS011;52977;44.816;20.538;2022-07-01T00:40:20;7.75;;;4.32;;
66175;SDS011;52977;44.816;20.538;2022-07-01T00:42:46;10.73;;;4.88;;
66175;SDS011;52977;44.816;20.538;2022-07-01T00:45:12;7.53;;;4.32;;
66175;SDS011;52977;44.816;20.538;2022-07-01T00:47:39;9.70;;;4.80;;
66175;SDS011;52977;44.816;20.538;2022-07-01T00:50:06;10.70;;;5.28;;
66175;SDS011;52977;44.816;20.538;2022-07-01T00:52:34;9.63;;;4.68;;
66175;SDS011;52977;44.816;20.538;2022-07-01T00:55:02;7.95;;;4.90;;
66175;SDS011;52977;44.816;20.538;2022-07-01T00:57:41;9.27;;;4.65;;
66175;SDS011;52977;44.816;20.538;2022-07-01T01:00:09;7.07;;;4.40;;
66175;SDS011;52977;44.816;20.538;2022-07-01T01:02:40;8.90;;;5.10;;
66175;SDS011;52977;44.816;20.538;2022-07-01T01:05:06;10.23;;;6.57;;
66175;SDS011;52977;44.816;20.538;2022-07-01T01:07:33;7.57;;;5.03;;
66175;SDS011;52977;44.816;20.538;2022-07-01T01:10:00;7.65;;;4.85;;
66175;SDS011;52977;44.816;20.538;2022-07-01T01:12:26;7.45;;;5.40;;
66175;SDS011;52977;44.816;20.538;2022-07-01T01:14:53;8.95;;;4.90;;
66175;SDS011;52977;44.816;20.538;2022-07-01T01:17:20;9.43;;;4.90;;
66175;SDS011;52977;44.816;20.538;2022-07-01T01:19:49;11.18;;;5.13;;
66175;SDS011;52977;44.816;20.538;2022-07-01T01:22:15;7.38;;;4.80;;
66175;SDS011;52977;44.816;20.538;2022-07-01T01:24:44;8.77;;;5.13;;
66175;SDS011;52977;44.816;20.538;2022-07-01T01:27:11;8.52;;;5.15;;
66175;SDS011;52977;44.816;20.538;2022-07-01T01:29:38;10.68;;;5.35;;
66175;SDS011;52977;44.816;20.538;2022-07-01T01:32:04;10.98;;;5.60;;
66175;SDS011;52977;44.816;20.538;2022-07-01T01:34:31;9.10;;;5.65;;
66175;SDS011;52977;44.816;20.538;2022-07-01T01:36:58;11.10;;;5.90;;
66175;SDS011;52977;44.816;20.538;2022-07-01T01:39:24;10.75;;;6.05;;
66175;SDS011;52977;44.816;20.538;2022-07-01T01:41:49;9.70;;;5.78;;
66175;SDS011;52977;44.816;20.538;2022-07-01T01:44:15;10.05;;;5.90;;
66175;SDS011;52977;44.816;20.538;2022-07-01T01:46:41;11.88;;;5.90;;
66175;SDS011;52977;44.816;20.538;2022-07-01T01:49:07;12.35;;;6.88;;
66175;SDS011;52977;44.816;20.538;2022-07-01T01:51:33;12.05;;;6.45;;
66175;SDS011;52977;44.816;20.538;2022-07-01T01:53:59;10.27;;;6.28;;
66175;SDS011;52977;44.816;20.538;2022-07-01T01:56:25;10.48;;;6.18;;
66175;SDS011;52977;44.816;20.538;2022-07-01T01:58:51;10.63;;;6.30;;
66175;SDS011;52977;44.816;20.538;2022-07-01T02:01:17;11.77;;;6.20;;
66175;SDS011;52977;44.816;20.538;2022-07-01T02:03:45;11.52;;;6.53;;
66175;SDS011;52977;44.816;20.538;2022-07-01T02:06:12;9.10;;;6.50;;
66175;SDS011;52977;44.816;20.538;2022-07-01T02:08:40;11.85;;;6.90;;
66175;SDS011;52977;44.816;20.538;2022-07-01T02:11:06;10.90;;;6.47;;
66175;SDS011;52977;44.816;20.538;2022-07-01T02:13:33;14.13;;;6.53;;
66175;SDS011;52977;44.816;20.538;2022-07-01T02:15:59;10.35;;;6.70;;
66175;SDS011;52977;44.816;20.538;2022-07-01T02:18:25;15.02;;;6.53;;
66175;SDS011;52977;44.816;20.538;2022-07-01T02:20:50;12.93;;;6.93;;
66175;SDS011;52977;44.816;20.538;2022-07-01T02:23:16;10.57;;;6.25;;
66175;SDS011;52977;44.816;20.538;2022-07-01T02:25:42;12.80;;;6.75;;
66175;SDS011;52977;44.816;20.538;2022-07-01T02:28:09;13.63;;;7.30;;
66175;SDS011;52977;44.816;20.538;2022-07-01T02:30:35;13.00;;;6.80;;
66175;SDS011;52977;44.816;20.538;2022-07-01T02:33:05;12.32;;;6.55;;
66175;SDS011;52977;44.816;20.538;2022-07-01T02:35:34;16.08;;;6.70;;
66175;SDS011;52977;44.816;20.538;2022-07-01T02:38:04;11.55;;;7.00;;
66175;SDS011;52977;44.816;20.538;2022-07-01T02:40:30;11.40;;;6.63;;
66175;SDS011;52977;44.816;20.538;2022-07-01T02:42:58;21.42;;;7.15;;
66175;SDS011;52977;44.816;20.538;2022-07-01T02:45:23;17.95;;;7.97;;
66175;SDS011;52977;44.816;20.538;2022-07-01T02:47:50;14.95;;;7.20;;
66175;SDS011;52977;44.816;20.538;2022-07-01T02:50:17;13.70;;;7.30;;
66175;SDS011;52977;44.816;20.538;2022-07-01T02:52:44;10.18;;;6.35;;
66175;SDS011;52977;44.816;20.538;2022-07-01T02:55:10;16.10;;;7.55;;
66175;SDS011;52977;44.816;20.538;2022-07-01T02:57:38;15.30;;;7.03;;
66175;SDS011;52977;44.816;20.538;2022-07-01T03:00:06;12.02;;;6.85;;
66175;SDS011;52977;44.816;20.538;2022-07-01T03:02:33;14.15;;;6.90;;
66175;SDS011;52977;44.816;20.538;2022-07-01T03:04:59;15.63;;;7.47;;
66175;SDS011;52977;44.816;20.538;2022-07-01T03:07:24;19.13;;;7.43;;
66175;SDS011;52977;44.816;20.538;2022-07-01T03:09:50;13.63;;;7.47;;
66175;SDS011;52977;44.816;20.538;2022-07-01T03:12:16;13.30;;;6.97;;
66175;SDS011;52977;44.816;20.538;2022-07-01T03:14:58;13.57;;;7.30;;
66175;SDS011;52977;44.816;20.538;2022-07-01T03:17:26;18.35;;;7.47;;
66175;SDS011;52977;44.816;20.538;2022-07-01T03:19:53;15.52;;;7.40;;
66175;SDS011;52977;44.816;20.538;2022-07-01T03:22:19;13.52;;;7.93;;
66175;SDS011;52977;44.816;20.538;2022-07-01T03:24:46;13.73;;;7.50;;
66175;SDS011;52977;44.816;20.538;2022-07-01T03:27:12;17.00;;;7.57;;
66175;SDS011;52977;44.816;20.538;2022-07-01T03:29:38;15.82;;;7.75;;
66175;SDS011;52977;44.816;20.538;2022-07-01T03:32:04;15.20;;;7.80;;
66175;SDS011;52977;44.816;20.538;2022-07-01T03:34:29;19.15;;;7.80;;
66175;SDS011;52977;44.816;20.538;2022-07-01T03:36:55;15.52;;;7.60;;
66175;SDS011;52977;44.816;20.538;2022-07-01T03:39:21;14.50;;;7.65;;
66175;SDS011;52977;44.816;20.538;2022-07-01T03:41:46;17.08;;;7.30;;
66175;SDS011;52977;44.816;20.538;2022-07-01T03:44:12;14.48;;;7.32;;
66175;SDS011;52977;44.816;20.538;2022-07-01T03:46:37;18.13;;;6.68;;
66175;SDS011;52977;44.816;20.538;2022-07-01T03:49:03;19.88;;;7.40;;
66175;SDS011;52977;44.816;20.538;2022-07-01T03:51:29;16.48;;;6.97;;
66175;SDS011;52977;44.816;20.538;2022-07-01T03:53:55;18.67;;;7.05;;
66175;SDS011;52977;44.816;20.538;2022-07-01T03:56:39;17.33;;;6.85;;
66175;SDS011;52977;44.816;20.538;2022-07-01T03:59:05;16.77;;;6.97;;
66175;SDS011;52977;44.816;20.538;2022-07-01T04:01:30;15.30;;;7.13;;
66175;SDS011;52977;44.816;20.538;2022-07-01T04:03:56;14.77;;;7.07;;
66175;SDS011;52977;44.816;20.538;2022-07-01T04:06:22;14.90;;;7.60;;
66175;SDS011;52977;44.816;20.538;2022-07-01T04:08:48;17.67;;;7.40;;
66175;SDS011;52977;44.816;20.538;2022-07-01T04:11:14;17.85;;;7.30;;
66175;SDS011;52977;44.816;20.538;2022-07-01T04:13:41;18.52;;;7.10;;
66175;SDS011;52977;44.816;20.538;2022-07-01T04:16:10;17.30;;;8.80;;
66175;SDS011;52977;44.816;20.538;2022-07-01T04:18:36;14.13;;;7.20;;
66175;SDS011;52977;44.816;20.538;2022-07-01T04:21:04;19.10;;;8.20;;
66175;SDS011;52977;44.816;20.538;2022-07-01T04:23:51;15.13;;;7.45;;
66175;SDS011;52977;44.816;20.538;2022-07-01T04:26:16;20.58;;;8.10;;
66175;SDS011;52977;44.816;20.538;2022-07-01T04:28:42;17.98;;;7.75;;
66175;SDS011;52977;44.816;20.538;2022-07-01T04:31:08;19.92;;;8.82;;
66175;SDS011;52977;44.816;20.538;2022-07-01T04:33:37;23.33;;;8.05;;
66175;SDS011;52977;44.816;20.538;2022-07-01T04:36:02;24.13;;;8.88;;
66175;SDS011;52977;44.816;20.538;2022-07-01T04:38:28;22.75;;;8.00;;
66175;SDS011;52977;44.816;20.538;2022-07-01T04:40:56;22.40;;;8.07;;
66175;SDS011;52977;44.816;20.538;2022-07-01T04:43:42;64.28;;;11.38;;
66175;SDS011;52977;44.816;20.538;2022-07-01T04:46:11;69.38;;;12.35;;
66175;SDS011;52977;44.816;20.538;2022-07-01T04:48:37;43.50;;;10.05;;
66175;SDS011;52977;44.816;20.538;2022-07-01T04:51:05;34.10;;;8.00;;
66175;SDS011;52977;44.816;20.538;2022-07-01T04:53:34;17.73;;;6.88;;
66175;SDS011;52977;44.816;20.538;2022-07-01T04:56:10;15.57;;;7.25;;
66175;SDS011;52977;44.816;20.538;2022-07-01T04:58:38;29.98;;;8.30;;
66175;SDS011;52977;44.816;20.538;2022-07-01T05:01:03;17.20;;;7.60;;
66175;SDS011;52977;44.816;20.538;2022-07-01T05:03:29;15.05;;;7.57;;
66175;SDS011;52977;44.816;20.538;2022-07-01T05:05:54;15.90;;;7.32;;
66175;SDS011;52977;44.816;20.538;2022-07-01T05:08:20;15.38;;;7.53;;
66175;SDS011;52977;44.816;20.538;2022-07-01T05:10:46;11.23;;;6.57;;
66175;SDS011;52977;44.816;20.538;2022-07-01T05:13:11;12.32;;;6.85;;
66175;SDS011;52977;44.816;20.538;2022-07-01T05:15:37;11.05;;;6.97;;
66175;SDS011;52977;44.816;20.538;2022-07-01T05:18:03;12.18;;;7.03;;
66175;SDS011;52977;44.816;20.538;2022-07-01T05:20:47;14.55;;;7.20;;
66175;SDS011;52977;44.816;20.538;2022-07-01T05:23:31;16.00;;;7.05;;
66175;SDS011;52977;44.816;20.538;2022-07-01T05:25:56;15.00;;;7.10;;
66175;SDS011;52977;44.816;20.538;2022-07-01T05:28:22;13.05;;;7.00;;
66175;SDS011;52977;44.816;20.538;2022-07-01T05:30:47;13.70;;;7.20;;
66175;SDS011;52977;44.816;20.538;2022-07-01T05:33:13;11.18;;;6.88;;
66175;SDS011;52977;44.816;20.538;2022-07-01T05:35:39;10.05;;;6.70;;
66175;SDS011;52977;44.816;20.538;2022-07-01T05:38:04;9.88;;;6.85;;
66175;SDS011;52977;44.816;20.538;2022-07-01T05:40:30;15.38;;;7.18;;
66175;SDS011;52977;44.816;20.538;2022-07-01T05:42:56;12.40;;;7.03;;
66175;SDS011;52977;44.816;20.538;2022-07-01T05:45:24;11.23;;;6.88;;
66175;SDS011;52977;44.816;20.538;2022-07-01T05:47:50;12.45;;;7.32;;
66175;SDS011;52977;44.816;20.538;2022-07-01T05:50:16;11.25;;;7.15;;
66175;SDS011;52977;44.816;20.538;2022-07-01T05:52:47;10.93;;;7.18;;
66175;SDS011;52977;44.816;20.538;2022-07-01T05:55:12;12.15;;;6.93;;
66175;SDS011;52977;44.816;20.538;2022-07-01T05:57:38;15.90;;;7.38;;
66175;SDS011;52977;44.816;20.538;2022-07-01T06:00:04;17.67;;;7.10;;
66175;SDS011;52977;44.816;20.538;2022-07-01T06:02:37;10.45;;;6.80;;
66175;SDS011;52977;44.816;20.538;2022-07-01T06:05:02;11.80;;;7.50;;
66175;SDS011;52977;44.816;20.538;2022-07-01T06:07:29;10.82;;;7.72;;
66175;SDS011;52977;44.816;20.538;2022-07-01T06:09:55;16.00;;;7.93;;
66175;SDS011;52977;44.816;20.538;2022-07-01T06:12:21;15.70;;;7.95;;
66175;SDS011;52977;44.816;20.538;2022-07-01T06:14:47;12.98;;;7.78;;
66175;SDS011;52977;44.816;20.538;2022-07-01T06:17:13;16.45;;;9.00;;
66175;SDS011;52977;44.816;20.538;2022-07-01T06:19:39;16.42;;;8.27;;
66175;SDS011;52977;44.816;20.538;2022-07-01T06:22:05;12.27;;;7.82;;
66175;SDS011;52977;44.816;20.538;2022-07-01T06:24:31;16.30;;;9.13;;
66175;SDS011;52977;44.816;20.538;2022-07-01T06:26:57;14.93;;;8.88;;
66175;SDS011;52977;44.816;20.538;2022-07-01T06:29:23;13.88;;;8.52;;
66175;SDS011;52977;44.816;20.538;2022-07-01T06:31:49;12.75;;;8.00;;
66175;SDS011;52977;44.816;20.538;2022-07-01T06:34:14;15.48;;;9.63;;
66175;SDS011;52977;44.816;20.538;2022-07-01T06:36:40;12.98;;;8.30;;
66175;SDS011;52977;44.816;20.538;2022-07-01T06:39:08;14.15;;;9.35;;
66175;SDS011;52977;44.816;20.538;2022-07-01T06:41:33;15.80;;;9.57;;
66175;SDS011;52977;44.816;20.538;2022-07-01T06:44:00;14.25;;;8.38;;
66175;SDS011;52977;44.816;20.538;2022-07-01T06:46:28;14.50;;;8.90;;
66175;SDS011;52977;44.816;20.538;2022-07-01T06:48:54;16.02;;;9.15;;
66175;SDS011;52977;44.816;20.538;2022-07-01T06:51:21;13.68;;;8.35;;
66175;SDS011;52977;44.816;20.538;2022-07-01T06:53:47;13.73;;;8.05;;
66175;SDS011;52977;44.816;20.538;2022-07-01T06:56:15;14.95;;;8.18;;
66175;SDS011;52977;44.816;20.538;2022-07-01T06:58:41;20.30;;;8.25;;
66175;SDS011;52977;44.816;20.538;2022-07-01T07:01:07;16.25;;;8.55;;
66175;SDS011;52977;44.816;20.538;2022-07-01T07:03:33;16.70;;;8.65;;
66175;SDS011;52977;44.816;20.538;2022-07-01T07:05:59;12.23;;;7.43;;
66175;SDS011;52977;44.816;20.538;2022-07-01T07:08:26;15.38;;;7.45;;
66175;SDS011;52977;44.816;20.538;2022-07-01T07:10:52;16.55;;;8.55;;
66175;SDS011;52977;44.816;20.538;2022-07-01T07:13:18;14.57;;;8.07;;
66175;SDS011;52977;44.816;20.538;2022-07-01T07:15:43;14.10;;;7.93;;
66175;SDS011;52977;44.816;20.538;2022-07-01T07:18:09;15.80;;;8.65;;
66175;SDS011;52977;44.816;20.538;2022-07-01T07:20:35;15.40;;;8.32;;
66175;SDS011;52977;44.816;20.538;2022-07-01T07:23:00;15.80;;;8.43;;
66175;SDS011;52977;44.816;20.538;2022-07-01T07:25:26;15.90;;;9.40;;
66175;SDS011;52977;44.816;20.538;2022-07-01T07:27:52;14.18;;;8.52;;
66175;SDS011;52977;44.816;20.538;2022-07-01T07:30:18;16.05;;;8.23;;
66175;SDS011;52977;44.816;20.538;2022-07-01T07:32:44;17.20;;;9.80;;
66175;SDS011;52977;44.816;20.538;2022-07-01T07:35:10;14.35;;;9.32;;
66175;SDS011;52977;44.816;20.538;2022-07-01T07:37:36;17.40;;;10.32;;
66175;SDS011;52977;44.816;20.538;2022-07-01T07:40:03;14.50;;;9.57;;
66175;SDS011;52977;44.816;20.538;2022-07-01T07:42:31;17.27;;;9.75;;
66175;SDS011;52977;44.816;20.538;2022-07-01T07:44:57;16.17;;;9.68;;
66175;SDS011;52977;44.816;20.538;2022-07-01T07:47:23;15.18;;;9.15;;
66175;SDS011;52977;44.816;20.538;2022-07-01T07:49:49;17.38;;;9.27;;
66175;SDS011;52977;44.816;20.538;2022-07-01T07:52:15;18.20;;;9.63;;
66175;SDS011;52977;44.816;20.538;2022-07-01T07:54:40;12.73;;;9.48;;
66175;SDS011;52977;44.816;20.538;2022-07-01T07:57:06;13.13;;;9.40;;
66175;SDS011;52977;44.816;20.538;2022-07-01T07:59:33;15.75;;;9.30;;
66175;SDS011;52977;44.816;20.538;2022-07-01T08:01:59;15.68;;;9.65;;
66175;SDS011;52977;44.816;20.538;2022-07-01T08:04:24;17.20;;;8.60;;
66175;SDS011;52977;44.816;20.538;2022-07-01T08:06:50;14.23;;;8.50;;
66175;SDS011;52977;44.816;20.538;2022-07-01T08:09:15;12.85;;;7.68;;
66175;SDS011;52977;44.816;20.538;2022-07-01T08:11:41;17.27;;;9.23;;
66175;SDS011;52977;44.816;20.538;2022-07-01T08:14:07;14.63;;;8.82;;
66175;SDS011;52977;44.816;20.538;2022-07-01T08:16:32;12.88;;;8.15;;
66175;SDS011;52977;44.816;20.538;2022-07-01T08:18:58;17.48;;;8.45;;
66175;SDS011;52977;44.816;20.538;2022-07-01T08:21:24;11.88;;;7.38;;
66175;SDS011;52977;44.816;20.538;2022-07-01T08:23:49;13.57;;;7.13;;
66175;SDS011;52977;44.816;20.538;2022-07-01T08:26:15;9.52;;;6.22;;
66175;SDS011;52977;44.816;20.538;2022-07-01T08:28:42;13.75;;;6.80;;
66175;SDS011;52977;44.816;20.538;2022-07-01T08:31:08;12.32;;;6.70;;
66175;SDS011;52977;44.816;20.538;2022-07-01T08:33:34;12.10;;;6.97;;
66175;SDS011;52977;44.816;20.538;2022-07-01T08:36:00;13.25;;;8.25;;
66175;SDS011;52977;44.816;20.538;2022-07-01T08:38:25;17.77;;;10.05;;
66175;SDS011;52977;44.816;20.538;2022-07-01T08:40:51;17.13;;;9.75;;
66175;SDS011;52977;44.816;20.538;2022-07-01T08:43:17;20.60;;;11.57;;
66175;SDS011;52977;44.816;20.538;2022-07-01T08:45:43;17.88;;;7.63;;
66175;SDS011;52977;44.816;20.538;2022-07-01T08:48:09;16.45;;;7.57;;
66175;SDS011;52977;44.816;20.538;2022-07-01T08:50:35;20.23;;;7.43;;
66175;SDS011;52977;44.816;20.538;2022-07-01T08:53:03;17.52;;;6.85;;
66175;SDS011;52977;44.816;20.538;2022-07-01T08:55:30;12.75;;;7.07;;
66175;SDS011;52977;44.816;20.538;2022-07-01T08:57:56;14.90;;;7.00;;
66175;SDS011;52977;44.816;20.538;2022-07-01T09:00:22;16.52;;;7.00;;
66175;SDS011;52977;44.816;20.538;2022-07-01T09:05:27;13.38;;;6.90;;
66175;SDS011;52977;44.816;20.538;2022-07-01T09:07:55;10.35;;;6.45;;
66175;SDS011;52977;44.816;20.538;2022-07-01T09:10:22;12.57;;;6.28;;
66175;SDS011;52977;44.816;20.538;2022-07-01T09:12:48;15.35;;;7.80;;
66175;SDS011;52977;44.816;20.538;2022-07-01T09:15:30;11.30;;;6.30;;
66175;SDS011;52977;44.816;20.538;2022-07-01T09:18:03;10.98;;;6.07;;
66175;SDS011;52977;44.816;20.538;2022-07-01T09:20:33;16.02;;;8.52;;
66175;SDS011;52977;44.816;20.538;2022-07-01T09:23:07;12.50;;;6.47;;
66175;SDS011;52977;44.816;20.538;2022-07-01T09:25:43;12.98;;;7.20;;
66175;SDS011;52977;44.816;20.538;2022-07-01T09:28:16;9.80;;;5.57;;
66175;SDS011;52977;44.816;20.538;2022-07-01T09:30:44;11.55;;;5.80;;
66175;SDS011;52977;44.816;20.538;2022-07-01T09:35:39;12.93;;;6.00;;
66175;SDS011;52977;44.816;20.538;2022-07-01T09:38:05;7.60;;;5.20;;
66175;SDS011;52977;44.816;20.538;2022-07-01T09:40:46;9.55;;;5.25;;
66175;SDS011;52977;44.816;20.538;2022-07-01T09:43:23;15.13;;;5.82;;
66175;SDS011;52977;44.816;20.538;2022-07-01T09:45:57;9.90;;;5.90;;
66175;SDS011;52977;44.816;20.538;2022-07-01T09:50:59;9.68;;;5.03;;
66175;SDS011;52977;44.816;20.538;2022-07-01T09:53:26;9.98;;;5.00;;
66175;SDS011;52977;44.816;20.538;2022-07-01T09:55:52;9.43;;;4.88;;
66175;SDS011;52977;44.816;20.538;2022-07-01T09:58:18;12.57;;;5.57;;
66175;SDS011;52977;44.816;20.538;2022-07-01T10:00:44;9.13;;;4.78;;
66175;SDS011;52977;44.816;20.538;2022-07-01T10:03:11;8.77;;;5.00;;
66175;SDS011;52977;44.816;20.538;2022-07-01T10:14:13;8.90;;;4.97;;
66175;SDS011;52977;44.816;20.538;2022-07-01T10:16:39;9.13;;;4.60;;
66175;SDS011;52977;44.816;20.538;2022-07-01T10:21:45;9.40;;;4.78;;
66175;SDS011;52977;44.816;20.538;2022-07-01T10:26:42;14.77;;;6.25;;
66175;SDS011;52977;44.816;20.538;2022-07-01T10:34:37;11.52;;;5.07;;
66175;SDS011;52977;44.816;20.538;2022-07-01T10:37:08;73.85;;;12.88;;
66175;SDS011;52977;44.816;20.538;2022-07-01T10:39:54;20.10;;;6.05;;
66175;SDS011;52977;44.816;20.538;2022-07-01T10:42:27;11.15;;;5.18;;
66175;SDS011;52977;44.816;20.538;2022-07-01T10:45:01;40.85;;;6.25;;
66175;SDS011;52977;44.816;20.538;2022-07-01T10:47:31;20.48;;;6.13;;
66175;SDS011;52977;44.816;20.538;2022-07-01T10:50:03;21.50;;;6.15;;
66175;SDS011;52977;44.816;20.538;2022-07-01T10:52:30;13.10;;;5.15;;
66175;SDS011;52977;44.816;20.538;2022-07-01T10:54:57;11.23;;;4.75;;
66175;SDS011;52977;44.816;20.538;2022-07-01T10:57:28;7.88;;;4.38;;
66175;SDS011;52977;44.816;20.538;2022-07-01T11:02:44;8.90;;;4.13;;
66175;SDS011;52977;44.816;20.538;2022-07-01T11:05:11;6.60;;;3.97;;
66175;SDS011;52977;44.816;20.538;2022-07-01T11:07:40;30.67;;;6.82;;
66175;SDS011;52977;44.816;20.538;2022-07-01T11:10:15;23.98;;;5.53;;
66175;SDS011;52977;44.816;20.538;2022-07-01T11:12:42;9.70;;;4.65;;
66175;SDS011;52977;44.816;20.538;2022-07-01T11:15:14;9.85;;;4.38;;
66175;SDS011;52977;44.816;20.538;2022-07-01T11:17:44;12.55;;;4.50;;
66175;SDS011;52977;44.816;20.538;2022-07-01T11:20:11;27.55;;;4.55;;
66175;SDS011;52977;44.816;20.538;2022-07-01T11:22:37;18.48;;;5.50;;
66175;SDS011;52977;44.816;20.538;2022-07-01T11:25:05;17.23;;;5.22;;
66175;SDS011;52977;44.816;20.538;2022-07-01T11:27:33;9.82;;;4.30;;
66175;SDS011;52977;44.816;20.538;2022-07-01T11:30:06;14.10;;;5.05;;
66175;SDS011;52977;44.816;20.538;2022-07-01T11:32:36;12.82;;;4.05;;
66175;SDS011;52977;44.816;20.538;2022-07-01T11:35:03;8.35;;;3.92;;
66175;SDS011;52977;44.816;20.538;2022-07-01T11:38:15;6.53;;;3.92;;
66175;SDS011;52977;44.816;20.538;2022-07-01T11:40:59;8.15;;;4.22;;
66175;SDS011;52977;44.816;20.538;2022-07-01T11:43:28;5.80;;;4.00;;
66175;SDS011;52977;44.816;20.538;2022-07-01T11:45:59;6.93;;;4.43;;
66175;SDS011;52977;44.816;20.538;2022-07-01T11:50:54;9.18;;;3.67;;
66175;SDS011;52977;44.816;20.538;2022-07-01T11:53:19;7.18;;;3.85;;
66175;SDS011;52977;44.816;20.538;2022-07-01T11:55:45;7.72;;;3.72;;
66175;SDS011;52977;44.816;20.538;2022-07-01T11:58:11;8.32;;;4.00;;
66175;SDS011;52977;44.816;20.538;2022-07-01T12:00:36;8.15;;;4.00;;
66175;SDS011;52977;44.816;20.538;2022-07-01T12:03:03;8.68;;;3.90;;
66175;SDS011;52977;44.816;20.538;2022-07-01T12:05:28;6.78;;;3.53;;
66175;SDS011;52977;44.816;20.538;2022-07-01T12:07:55;7.40;;;3.75;;
66175;SDS011;52977;44.816;20.538;2022-07-01T12:10:24;10.10;;;4.10;;
66175;SDS011;52977;44.816;20.538;2022-07-01T12:12:51;6.13;;;4.28;;
66175;SDS011;52977;44.816;20.538;2022-07-01T12:15:17;8.88;;;3.97;;
66175;SDS011;52977;44.816;20.538;2022-07-01T12:17:45;7.70;;;4.03;;
66175;SDS011;52977;44.816;20.538;2022-07-01T12:20:10;27.35;;;5.80;;
66175;SDS011;52977;44.816;20.538;2022-07-01T12:22:36;23.90;;;5.80;;
66175;SDS011;52977;44.816;20.538;2022-07-01T12:25:09;8.90;;;4.18;;
66175;SDS011;52977;44.816;20.538;2022-07-01T12:27:39;6.95;;;3.97;;
66175;SDS011;52977;44.816;20.538;2022-07-01T12:30:06;10.95;;;4.30;;
66175;SDS011;52977;44.816;20.538;2022-07-01T12:32:37;112.00;;;18.98;;
66175;SDS011;52977;44.816;20.538;2022-07-01T12:35:05;18.08;;;5.03;;
66175;SDS011;52977;44.816;20.538;2022-07-01T12:38:05;9.95;;;4.20;;
66175;SDS011;52977;44.816;20.538;2022-07-01T12:40:33;28.20;;;6.55;;
66175;SDS011;52977;44.816;20.538;2022-07-01T12:42:58;19.13;;;5.20;;
66175;SDS011;52977;44.816;20.538;2022-07-01T12:45:31;14.63;;;4.90;;
66175;SDS011;52977;44.816;20.538;2022-07-01T12:47:59;7.78;;;3.95;;
66175;SDS011;52977;44.816;20.538;2022-07-01T12:50:26;15.60;;;5.40;;
66175;SDS011;52977;44.816;20.538;2022-07-01T12:53:17;12.75;;;5.15;;
66175;SDS011;52977;44.816;20.538;2022-07-01T12:55:45;12.10;;;4.18;;
66175;SDS011;52977;44.816;20.538;2022-07-01T12:58:13;9.95;;;3.90;;
66175;SDS011;52977;44.816;20.538;2022-07-01T13:00:43;9.02;;;5.78;;
66175;SDS011;52977;44.816;20.538;2022-07-01T13:03:10;19.88;;;6.05;;
66175;SDS011;52977;44.816;20.538;2022-07-01T13:05:37;14.55;;;6.10;;
66175;SDS011;52977;44.816;20.538;2022-07-01T13:08:06;12.32;;;5.93;;
66175;SDS011;52977;44.816;20.538;2022-07-01T13:10:33;10.20;;;4.95;;
66175;SDS011;52977;44.816;20.538;2022-07-01T13:12:59;17.83;;;7.07;;
66175;SDS011;52977;44.816;20.538;2022-07-01T13:15:25;12.25;;;6.85;;
66175;SDS011;52977;44.816;20.538;2022-07-01T13:17:50;27.95;;;7.03;;
66175;SDS011;52977;44.816;20.538;2022-07-01T13:20:17;52.30;;;8.95;;
66175;SDS011;52977;44.816;20.538;2022-07-01T13:22:43;33.60;;;8.50;;
66175;SDS011;52977;44.816;20.538;2022-07-01T13:25:09;15.27;;;4.57;;
66175;SDS011;52977;44.816;20.538;2022-07-01T13:27:36;9.52;;;4.60;;
66175;SDS011;52977;44.816;20.538;2022-07-01T13:30:04;5.95;;;4.10;;
66175;SDS011;52977;44.816;20.538;2022-07-01T13:32:31;18.63;;;4.70;;
66175;SDS011;52977;44.816;20.538;2022-07-01T13:34:57;8.75;;;3.95;;
66175;SDS011;52977;44.816;20.538;2022-07-01T13:37:23;7.53;;;4.10;;
66175;SDS011;52977;44.816;20.538;2022-07-01T13:39:48;10.23;;;4.00;;
66175;SDS011;52977;44.816;20.538;2022-07-01T13:42:14;5.55;;;3.72;;
66175;SDS011;52977;44.816;20.538;2022-07-01T13:44:40;7.93;;;4.45;;
66175;SDS011;52977;44.816;20.538;2022-07-01T13:47:05;9.77;;;4.05;;
66175;SDS011;52977;44.816;20.538;2022-07-01T13:49:35;7.10;;;3.97;;
66175;SDS011;52977;44.816;20.538;2022-07-01T13:52:01;6.22;;;4.18;;
66175;SDS011;52977;44.816;20.538;2022-07-01T13:54:26;7.68;;;3.97;;
66175;SDS011;52977;44.816;20.538;2022-07-01T13:56:52;5.72;;;3.88;;
66175;SDS011;52977;44.816;20.538;2022-07-01T13:59:17;5.53;;;3.58;;
66175;SDS011;52977;44.816;20.538;2022-07-01T14:01:43;7.85;;;4.05;;
66175;SDS011;52977;44.816;20.538;2022-07-01T14:04:09;8.35;;;3.92;;
66175;SDS011;52977;44.816;20.538;2022-07-01T14:06:35;5.97;;;4.20;;
66175;SDS011;52977;44.816;20.538;2022-07-01T14:09:01;8.38;;;3.85;;
66175;SDS011;52977;44.816;20.538;2022-07-01T14:11:26;6.07;;;3.95;;
66175;SDS011;52977;44.816;20.538;2022-07-01T14:13:52;8.13;;;3.60;;
66175;SDS011;52977;44.816;20.538;2022-07-01T14:16:17;8.02;;;3.72;;
66175;SDS011;52977;44.816;20.538;2022-07-01T14:18:44;6.47;;;3.95;;
66175;SDS011;52977;44.816;20.538;2022-07-01T14:21:10;5.88;;;4.20;;
66175;SDS011;52977;44.816;20.538;2022-07-01T14:23:36;5.85;;;3.97;;
66175;SDS011;52977;44.816;20.538;2022-07-01T14:26:01;7.70;;;3.83;;
66175;SDS011;52977;44.816;20.538;2022-07-01T14:28:28;8.30;;;4.18;;
66175;SDS011;52977;44.816;20.538;2022-07-01T14:30:53;8.85;;;3.97;;
66175;SDS011;52977;44.816;20.538;2022-07-01T14:33:22;7.18;;;3.95;;
66175;SDS011;52977;44.816;20.538;2022-07-01T14:35:48;5.40;;;3.67;;
66175;SDS011;52977;44.816;20.538;2022-07-01T14:38:15;7.57;;;4.00;;
66175;SDS011;52977;44.816;20.538;2022-07-01T14:40:48;8.70;;;3.85;;
66175;SDS011;52977;44.816;20.538;2022-07-01T14:43:14;5.43;;;3.70;;
66175;SDS011;52977;44.816;20.538;2022-07-01T14:45:40;6.53;;;3.95;;
66175;SDS011;52977;44.816;20.538;2022-07-01T14:48:06;4.68;;;3.53;;
66175;SDS011;52977;44.816;20.538;2022-07-01T14:50:32;6.75;;;3.47;;
66175;SDS011;52977;44.816;20.538;2022-07-01T14:52:59;7.70;;;3.90;;
66175;SDS011;52977;44.816;20.538;2022-07-01T14:55:26;9.18;;;3.85;;
66175;SDS011;52977;44.816;20.538;2022-07-01T14:57:53;11.82;;;3.90;;
66175;SDS011;52977;44.816;20.538;2022-07-01T15:00:19;5.07;;;3.25;;